sensor_id;sensor_type;location;lat;lon;timestamp;pressure;altitude;pressure_sealevel;temperature;humidity
62634;BME280;48704;50.534;6.442;2023-10-13T00:01:23;95397.25;;;14.61;100.00
62634;BME280;48704;50.534;6.442;2023-10-13T00:03:51;95402.09;;;14.66;100.00
62634;BME280;48704;50.534;6.442;2023-10-13T00:06:18;95401.06;;;14.69;100.00
62634;BME280;48704;50.534;6.442;2023-10-13T00:08:44;95391.91;;;14.75;100.00
62634;BME280;48704;50.534;6.442;2023-10-13T00:11:14;95399.81;;;14.76;100.00
62634;BME280;48704;50.534;6.442;2023-10-13T00:13:40;95393.69;;;14.78;100.00
62634;BME280;48704;50.534;6.442;2023-10-13T00:16:17;95390.88;;;14.78;100.00
62634;BME280;48704;50.534;6.442;2023-10-13T00:18:43;95393.94;;;14.80;100.00
62634;BME280;48704;50.534;6.442;2023-10-13T00:21:10;95393.69;;;14.78;100.00
62634;BME280;48704;50.534;6.442;2023-10-13T00:23:43;95383.75;;;14.77;100.00
62634;BME280;48704;50.534;6.442;2023-10-13T00:26:24;95385.78;;;14.82;100.00
62634;BME280;48704;50.534;6.442;2023-10-13T00:29:00;95385.50;;;14.85;100.00
62634;BME280;48704;50.534;6.442;2023-10-13T00:31:33;95378.88;;;14.88;100.00
62634;BME280;48704;50.534;6.442;2023-10-13T00:34:01;95376.56;;;14.87;100.00
62634;BME280;48704;50.534;6.442;2023-10-13T00:36:36;95368.91;;;14.93;100.00
62634;BME280;48704;50.534;6.442;2023-10-13T00:39:02;95378.09;;;14.93;100.00
62634;BME280;48704;50.534;6.442;2023-10-13T00:41:31;95375.56;;;14.90;100.00
62634;BME280;48704;50.534;6.442;2023-10-13T00:44:16;95374.53;;;14.98;100.00
62634;BME280;48704;50.534;6.442;2023-10-13T00:46:43;95361.25;;;14.99;100.00
62634;BME280;48704;50.534;6.442;2023-10-13T00:49:10;95361.25;;;14.99;100.00
62634;BME280;48704;50.534;6.442;2023-10-13T00:51:41;95354.63;;;15.02;100.00
62634;BME280;48704;50.534;6.442;2023-10-13T00:54:12;95349.28;;;15.04;100.00
62634;BME280;48704;50.534;6.442;2023-10-13T00:56:41;95351.06;;;15.07;100.00
62634;BME280;48704;50.534;6.442;2023-10-13T00:59:29;95346.47;;;14.98;100.00
62634;BME280;48704;50.534;6.442;2023-10-13T01:05:55;95326.56;;;15.02;100.00
62634;BME280;48704;50.534;6.442;2023-10-13T01:08:33;95329.88;;;15.06;100.00
62634;BME280;48704;50.534;6.442;2023-10-13T01:11:03;95333.72;;;15.03;100.00
62634;BME280;48704;50.534;6.442;2023-10-13T01:13:31;95331.16;;;15.05;100.00
62634;BME280;48704;50.534;6.442;2023-10-13T01:16:01;95329.13;;;15.00;100.00
62634;BME280;48704;50.534;6.442;2023-10-13T01:18:26;95327.59;;;14.99;100.00
62634;BME280;48704;50.534;6.442;2023-10-13T01:20:54;95335.75;;;14.97;100.00
62634;BME280;48704;50.534;6.442;2023-10-13T01:23:24;95324.78;;;15.04;100.00
62634;BME280;48704;50.534;6.442;2023-10-13T01:25:54;95320.97;;;15.02;100.00
62634;BME280;48704;50.534;6.442;2023-10-13T01:28:22;95326.06;;;14.98;100.00
62634;BME280;48704;50.534;6.442;2023-10-13T01:30:47;95332.94;;;15.02;100.00
62634;BME280;48704;50.534;6.442;2023-10-13T01:33:19;95323.50;;;15.00;100.00
62634;BME280;48704;50.534;6.442;2023-10-13T01:35:55;95324.78;;;15.04;100.00
62634;BME280;48704;50.534;6.442;2023-10-13T01:38:23;95322.50;;;15.03;100.00
62634;BME280;48704;50.534;6.442;2023-10-13T01:40:53;95316.09;;;15.08;100.00
62634;BME280;48704;50.534;6.442;2023-10-13T01:43:18;95305.41;;;15.07;100.00
62634;BME280;48704;50.534;6.442;2023-10-13T01:45:43;95306.16;;;15.07;100.00
62634;BME280;48704;50.534;6.442;2023-10-13T01:48:12;95308.19;;;15.12;100.00
62634;BME280;48704;50.534;6.442;2023-10-13T01:50:41;95310.47;;;15.14;100.00
62634;BME280;48704;50.534;6.442;2023-10-13T01:53:07;95307.91;;;15.16;100.00
62634;BME280;48704;50.534;6.442;2023-10-13T01:55:39;95297.72;;;15.18;100.00
62634;BME280;48704;50.534;6.442;2023-10-13T01:58:11;95297.16;;;15.25;100.00
62634;BME280;48704;50.534;6.442;2023-10-13T02:00:41;95287.44;;;15.26;100.00
62634;BME280;48704;50.534;6.442;2023-10-13T02:03:08;95285.16;;;15.30;100.00
62634;BME280;48704;50.534;6.442;2023-10-13T02:05:40;95281.31;;;15.28;100.00
62634;BME280;48704;50.534;6.442;2023-10-13T02:08:08;95278.00;;;15.29;100.00
62634;BME280;48704;50.534;6.442;2023-10-13T02:10:35;95279.28;;;15.28;100.00
62634;BME280;48704;50.534;6.442;2023-10-13T02:13:00;95273.16;;;15.30;100.00
62634;BME280;48704;50.534;6.442;2023-10-13T02:15:28;95265.25;;;15.28;100.00
62634;BME280;48704;50.534;6.442;2023-10-13T02:17:59;95274.69;;;15.31;100.00
62634;BME280;48704;50.534;6.442;2023-10-13T02:20:25;95276.97;;;15.32;100.00
62634;BME280;48704;50.534;6.442;2023-10-13T02:22:55;95280.28;;;15.36;100.00
62634;BME280;48704;50.534;6.442;2023-10-13T02:25:21;95275.41;;;15.37;100.00
62634;BME280;48704;50.534;6.442;2023-10-13T02:28:09;95270.31;;;15.35;100.00
62634;BME280;48704;50.534;6.442;2023-10-13T02:30:42;95263.94;;;15.35;100.00
62634;BME280;48704;50.534;6.442;2023-10-13T02:33:11;95264.72;;;15.35;100.00
62634;BME280;48704;50.534;6.442;2023-10-13T02:35:38;95260.63;;;15.36;100.00
62634;BME280;48704;50.534;6.442;2023-10-13T02:38:07;95248.63;;;15.36;100.00
62634;BME280;48704;50.534;6.442;2023-10-13T02:40:37;95247.88;;;15.35;100.00
62634;BME280;48704;50.534;6.442;2023-10-13T02:43:03;95239.72;;;15.32;100.00
62634;BME280;48704;50.534;6.442;2023-10-13T02:45:31;95251.97;;;15.29;100.00
62634;BME280;48704;50.534;6.442;2023-10-13T02:47:56;95252.97;;;15.31;100.00
62634;BME280;48704;50.534;6.442;2023-10-13T02:50:42;95242.25;;;15.35;100.00
62634;BME280;48704;50.534;6.442;2023-10-13T02:53:10;95225.41;;;15.35;100.00
62634;BME280;48704;50.534;6.442;2023-10-13T02:55:49;95225.41;;;15.35;100.00
62634;BME280;48704;50.534;6.442;2023-10-13T02:58:14;95230.03;;;15.27;100.00
62634;BME280;48704;50.534;6.442;2023-10-13T03:00:40;95228.50;;;15.26;100.00
62634;BME280;48704;50.534;6.442;2023-10-13T03:03:06;95223.88;;;15.34;100.00
62634;BME280;48704;50.534;6.442;2023-10-13T03:05:34;95216.47;;;15.37;100.00
62634;BME280;48704;50.534;6.442;2023-10-13T03:08:00;95214.19;;;15.35;100.00
62634;BME280;48704;50.534;6.442;2023-10-13T03:10:29;95199.91;;;15.33;100.00
62634;BME280;48704;50.534;6.442;2023-10-13T03:12:54;95209.06;;;15.39;100.00
62634;BME280;48704;50.534;6.442;2023-10-13T03:15:20;95204.72;;;15.38;100.00
62634;BME280;48704;50.534;6.442;2023-10-13T03:17:53;95197.06;;;15.39;100.00
62634;BME280;48704;50.534;6.442;2023-10-13T03:20:20;95196.53;;;15.41;100.00
62634;BME280;48704;50.534;6.442;2023-10-13T03:22:56;95185.31;;;15.41;100.00
62634;BME280;48704;50.534;6.442;2023-10-13T03:25:21;95182.22;;;15.44;100.00
62634;BME280;48704;50.534;6.442;2023-10-13T03:28:07;95176.13;;;15.40;100.00
62634;BME280;48704;50.534;6.442;2023-10-13T03:30:36;95172.53;;;15.45;100.00
62634;BME280;48704;50.534;6.442;2023-10-13T03:33:07;95166.16;;;15.45;100.00
62634;BME280;48704;50.534;6.442;2023-10-13T03:35:35;95156.44;;;15.46;100.00
62634;BME280;48704;50.534;6.442;2023-10-13T03:38:05;95148.50;;;15.50;100.00
62634;BME280;48704;50.534;6.442;2023-10-13T03:40:42;95150.03;;;15.51;100.00
62634;BME280;48704;50.534;6.442;2023-10-13T03:43:13;95141.59;;;15.51;100.00
62634;BME280;48704;50.534;6.442;2023-10-13T03:45:40;95133.19;;;15.51;100.00
62634;BME280;48704;50.534;6.442;2023-10-13T03:48:09;95140.84;;;15.50;100.00
62634;BME280;48704;50.534;6.442;2023-10-13T03:50:40;95132.41;;;15.50;100.00
62634;BME280;48704;50.534;6.442;2023-10-13T03:53:14;95134.94;;;15.54;100.00
62634;BME280;48704;50.534;6.442;2023-10-13T03:55:40;95123.72;;;15.54;100.00
62634;BME280;48704;50.534;6.442;2023-10-13T03:58:13;95128.31;;;15.57;100.00
62634;BME280;48704;50.534;6.442;2023-10-13T04:00:39;95113.00;;;15.58;100.00
62634;BME280;48704;50.534;6.442;2023-10-13T04:03:08;95127.25;;;15.60;100.00
62634;BME280;48704;50.534;6.442;2023-10-13T04:05:35;95128.78;;;15.61;100.00
62634;BME280;48704;50.534;6.442;2023-10-13T04:08:11;95111.94;;;15.61;100.00
62634;BME280;48704;50.534;6.442;2023-10-13T04:10:53;95117.53;;;15.61;100.00
62634;BME280;48704;50.534;6.442;2023-10-13T04:13:19;95118.03;;;15.65;100.00
62634;BME280;48704;50.534;6.442;2023-10-13T04:15:45;95103.75;;;15.63;100.00
62634;BME280;48704;50.534;6.442;2023-10-13T04:18:46;95109.06;;;15.66;100.00
62634;BME280;48704;50.534;6.442;2023-10-13T04:21:23;95100.13;;;15.68;100.00
62634;BME280;48704;50.534;6.442;2023-10-13T04:26:42;95105.75;;;15.68;100.00
62634;BME280;48704;50.534;6.442;2023-10-13T04:29:27;95095.00;;;15.72;100.00
62634;BME280;48704;50.534;6.442;2023-10-13T04:32:10;95089.66;;;15.68;100.00
62634;BME280;48704;50.534;6.442;2023-10-13T04:34:39;95099.06;;;15.71;100.00
62634;BME280;48704;50.534;6.442;2023-10-13T04:37:05;95086.00;;;15.79;100.00
62634;BME280;48704;50.534;6.442;2023-10-13T04:39:53;95091.84;;;15.81;100.00
62634;BME280;48704;50.534;6.442;2023-10-13T04:42:23;95096.41;;;15.84;100.00
62634;BME280;48704;50.534;6.442;2023-10-13T04:45:11;95083.13;;;15.85;100.00
62634;BME280;48704;50.534;6.442;2023-10-13T04:47:55;95092.31;;;15.85;100.00
62634;BME280;48704;50.534;6.442;2023-10-13T04:50:38;95099.94;;;15.90;100.00
62634;BME280;48704;50.534;6.442;2023-10-13T04:53:19;95086.41;;;15.89;100.00
62634;BME280;48704;50.534;6.442;2023-10-13T04:56:20;95084.13;;;15.87;100.00
62634;BME280;48704;50.534;6.442;2023-10-13T04:59:03;95069.56;;;15.89;100.00
62634;BME280;48704;50.534;6.442;2023-10-13T05:01:43;95074.41;;;15.88;100.00
62634;BME280;48704;50.534;6.442;2023-10-13T05:04:44;95066.03;;;15.83;100.00
62634;BME280;48704;50.534;6.442;2023-10-13T05:07:28;95062.72;;;15.84;100.00
62634;BME280;48704;50.534;6.442;2023-10-13T05:10:11;95068.81;;;15.88;100.00
62634;BME280;48704;50.534;6.442;2023-10-13T05:12:55;95071.84;;;15.90;100.00
62634;BME280;48704;50.534;6.442;2023-10-13T05:15:47;95074.66;;;15.90;100.00
62634;BME280;48704;50.534;6.442;2023-10-13T05:18:31;95061.38;;;15.91;100.00
62634;BME280;48704;50.534;6.442;2023-10-13T05:21:15;95053.94;;;15.93;100.00
62634;BME280;48704;50.534;6.442;2023-10-13T05:23:59;95064.94;;;15.91;100.00
62634;BME280;48704;50.534;6.442;2023-10-13T05:26:43;95059.84;;;15.90;100.00
62634;BME280;48704;50.534;6.442;2023-10-13T05:29:27;95066.22;;;15.90;100.00
62634;BME280;48704;50.534;6.442;2023-10-13T05:32:11;95063.41;;;15.90;100.00
62634;BME280;48704;50.534;6.442;2023-10-13T05:34:55;95059.66;;;15.82;100.00
62634;BME280;48704;50.534;6.442;2023-10-13T05:37:39;95067.28;;;15.87;100.00
62634;BME280;48704;50.534;6.442;2023-10-13T05:40:23;95065.75;;;15.86;100.00
62634;BME280;48704;50.534;6.442;2023-10-13T05:43:07;95068.81;;;15.88;100.00
62634;BME280;48704;50.534;6.442;2023-10-13T05:45:51;95066.50;;;15.87;100.00
62634;BME280;48704;50.534;6.442;2023-10-13T05:48:36;95077.47;;;15.90;100.00
62634;BME280;48704;50.534;6.442;2023-10-13T05:51:28;95069.28;;;15.92;100.00
62634;BME280;48704;50.534;6.442;2023-10-13T05:54:00;95044.22;;;15.94;100.00
62634;BME280;48704;50.534;6.442;2023-10-13T05:56:42;95068.00;;;15.93;100.00
62634;BME280;48704;50.534;6.442;2023-10-13T05:59:26;95059.31;;;15.91;100.00
62634;BME280;48704;50.534;6.442;2023-10-13T06:02:10;95052.69;;;15.89;100.00
62634;BME280;48704;50.534;6.442;2023-10-13T06:04:55;95045.56;;;15.88;100.00
62634;BME280;48704;50.534;6.442;2023-10-13T06:07:39;95045.84;;;15.84;100.00
62634;BME280;48704;50.534;6.442;2023-10-13T06:10:23;95047.84;;;15.89;100.00
62634;BME280;48704;50.534;6.442;2023-10-13T06:13:07;95049.38;;;15.90;100.00
62634;BME280;48704;50.534;6.442;2023-10-13T06:15:51;95050.66;;;15.89;100.00
62634;BME280;48704;50.534;6.442;2023-10-13T06:18:35;95042.47;;;15.91;100.00
62634;BME280;48704;50.534;6.442;2023-10-13T06:21:22;95045.75;;;15.95;100.00
62634;BME280;48704;50.534;6.442;2023-10-13T06:24:09;95060.00;;;15.97;100.00
62634;BME280;48704;50.534;6.442;2023-10-13T06:26:53;95039.81;;;15.99;100.00
62634;BME280;48704;50.534;6.442;2023-10-13T06:29:37;95052.56;;;16.00;100.00
62634;BME280;48704;50.534;6.442;2023-10-13T06:32:03;95035.19;;;16.01;100.00
62634;BME280;48704;50.534;6.442;2023-10-13T06:34:36;95042.09;;;16.00;100.00
62634;BME280;48704;50.534;6.442;2023-10-13T06:37:14;95036.47;;;16.00;100.00
62634;BME280;48704;50.534;6.442;2023-10-13T06:39:50;95023.94;;;16.01;100.00
62634;BME280;48704;50.534;6.442;2023-10-13T06:42:16;95025.22;;;16.00;100.00
62634;BME280;48704;50.534;6.442;2023-10-13T06:44:43;95020.13;;;15.99;100.00
62634;BME280;48704;50.534;6.442;2023-10-13T06:47:12;95023.19;;;16.01;100.00
62634;BME280;48704;50.534;6.442;2023-10-13T06:49:41;95027.00;;;16.03;100.00
62634;BME280;48704;50.534;6.442;2023-10-13T06:52:09;95023.59;;;16.11;100.00
62634;BME280;48704;50.534;6.442;2023-10-13T06:54:36;95025.88;;;16.12;100.00
62634;BME280;48704;50.534;6.442;2023-10-13T06:57:03;95022.31;;;16.12;100.00
62634;BME280;48704;50.534;6.442;2023-10-13T06:59:32;95027.09;;;16.17;100.00
62634;BME280;48704;50.534;6.442;2023-10-13T07:02:00;95033.19;;;16.21;100.00
62634;BME280;48704;50.534;6.442;2023-10-13T07:04:34;95024.69;;;16.26;100.00
62634;BME280;48704;50.534;6.442;2023-10-13T07:07:00;95040.56;;;16.24;100.00
62634;BME280;48704;50.534;6.442;2023-10-13T07:09:26;95031.84;;;16.27;100.00
62634;BME280;48704;50.534;6.442;2023-10-13T07:12:05;95039.28;;;16.25;100.00
62634;BME280;48704;50.534;6.442;2023-10-13T07:14:50;95028.03;;;16.25;100.00
62634;BME280;48704;50.534;6.442;2023-10-13T07:17:24;95029.25;;;16.29;100.00
62634;BME280;48704;50.534;6.442;2023-10-13T07:19:52;95039.00;;;16.28;100.00
62634;BME280;48704;50.534;6.442;2023-10-13T07:22:43;95034.13;;;16.29;100.00
62634;BME280;48704;50.534;6.442;2023-10-13T07:25:28;95034.13;;;16.29;100.00
62634;BME280;48704;50.534;6.442;2023-10-13T07:28:00;95046.19;;;16.24;100.00
62634;BME280;48704;50.534;6.442;2023-10-13T07:30:26;95036.00;;;16.21;100.00
62634;BME280;48704;50.534;6.442;2023-10-13T07:32:52;95038.81;;;16.21;100.00
62634;BME280;48704;50.534;6.442;2023-10-13T07:35:19;95038.81;;;16.21;100.00
62634;BME280;48704;50.534;6.442;2023-10-13T07:37:48;95041.34;;;16.24;100.00
62634;BME280;48704;50.534;6.442;2023-10-13T07:40:21;95051.34;;;16.20;100.00
62634;BME280;48704;50.534;6.442;2023-10-13T07:42:56;95045.72;;;16.20;100.00
62634;BME280;48704;50.534;6.442;2023-10-13T07:45:30;95043.38;;;16.24;100.00
62634;BME280;48704;50.534;6.442;2023-10-13T07:48:09;95043.84;;;16.28;100.00
62634;BME280;48704;50.534;6.442;2023-10-13T07:50:41;95035.88;;;16.32;100.00
62634;BME280;48704;50.534;6.442;2023-10-13T07:53:06;95044.75;;;16.36;100.00
62634;BME280;48704;50.534;6.442;2023-10-13T07:55:47;95041.59;;;16.45;100.00
62634;BME280;48704;50.534;6.442;2023-10-13T07:58:13;95046.47;;;16.63;100.00
62634;BME280;48704;50.534;6.442;2023-10-13T08:00:39;95051.06;;;16.66;100.00
62634;BME280;48704;50.534;6.442;2023-10-13T08:03:10;95046.00;;;16.59;100.00
62634;BME280;48704;50.534;6.442;2023-10-13T08:05:42;95047.38;;;16.53;100.00
62634;BME280;48704;50.534;6.442;2023-10-13T08:08:23;95037.41;;;16.33;100.00
62634;BME280;48704;50.534;6.442;2023-10-13T08:10:52;95033.66;;;16.25;100.00
62634;BME280;48704;50.534;6.442;2023-10-13T08:13:21;95032.38;;;16.26;100.00
62634;BME280;48704;50.534;6.442;2023-10-13T08:15:47;95035.66;;;16.30;100.00
62634;BME280;48704;50.534;6.442;2023-10-13T08:18:16;95040.41;;;16.35;100.00
62634;BME280;48704;50.534;6.442;2023-10-13T08:21:05;95050.38;;;16.36;100.00
62634;BME280;48704;50.534;6.442;2023-10-13T08:23:41;95041.28;;;16.30;100.00
62634;BME280;48704;50.534;6.442;2023-10-13T08:26:18;95048.78;;;16.22;100.00
62634;BME280;48704;50.534;6.442;2023-10-13T08:29:16;95036.59;;;16.14;100.00
62634;BME280;48704;50.534;6.442;2023-10-13T08:31:52;95024.78;;;15.96;100.00
62634;BME280;48704;50.534;6.442;2023-10-13T08:34:33;95028.06;;;15.76;100.00
62634;BME280;48704;50.534;6.442;2023-10-13T08:37:08;95028.34;;;15.73;100.00
62634;BME280;48704;50.534;6.442;2023-10-13T08:39:57;95021.91;;;15.78;100.00
62634;BME280;48704;50.534;6.442;2023-10-13T08:42:35;95025.66;;;15.86;100.00
62634;BME280;48704;50.534;6.442;2023-10-13T08:45:16;95037.09;;;15.93;100.00
62634;BME280;48704;50.534;6.442;2023-10-13T08:47:51;95018.41;;;15.96;100.00
62634;BME280;48704;50.534;6.442;2023-10-13T08:50:22;95020.84;;;16.05;100.00
62634;BME280;48704;50.534;6.442;2023-10-13T08:53:14;95027.28;;;16.24;100.00
62634;BME280;48704;50.534;6.442;2023-10-13T09:04:11;95045.03;;;16.14;100.00
62634;BME280;48704;50.534;6.442;2023-10-13T09:06:54;95038.34;;;16.17;100.00
62634;BME280;48704;50.534;6.442;2023-10-13T09:12:14;95037.75;;;16.24;100.00
62634;BME280;48704;50.534;6.442;2023-10-13T09:14:43;95021.88;;;16.26;100.00
62634;BME280;48704;50.534;6.442;2023-10-13T09:17:19;95013.81;;;16.36;100.00
62634;BME280;48704;50.534;6.442;2023-10-13T09:19:49;95011.13;;;16.49;100.00
62634;BME280;48704;50.534;6.442;2023-10-13T09:22:28;94999.16;;;16.67;100.00
62634;BME280;48704;50.534;6.442;2023-10-13T09:25:01;94997.91;;;17.00;100.00
62634;BME280;48704;50.534;6.442;2023-10-13T09:27:29;95008.03;;;16.90;100.00
62634;BME280;48704;50.534;6.442;2023-10-13T09:29:58;95000.47;;;16.61;100.00
62634;BME280;48704;50.534;6.442;2023-10-13T09:32:44;94994.19;;;16.74;100.00
62634;BME280;48704;50.534;6.442;2023-10-13T09:35:18;94995.09;;;16.82;100.00
62634;BME280;48704;50.534;6.442;2023-10-13T09:37:45;94988.56;;;16.74;100.00
62634;BME280;48704;50.534;6.442;2023-10-13T09:40:16;94985.97;;;16.76;100.00
62634;BME280;48704;50.534;6.442;2023-10-13T09:42:52;94989.47;;;16.82;100.00
62634;BME280;48704;50.534;6.442;2023-10-13T09:45:24;94981.66;;;17.38;100.00
62634;BME280;48704;50.534;6.442;2023-10-13T09:47:55;94976.25;;;18.12;100.00
62634;BME280;48704;50.534;6.442;2023-10-13T09:50:27;94987.16;;;18.55;100.00
62634;BME280;48704;50.534;6.442;2023-10-13T09:52:58;94978.44;;;18.80;100.00
62634;BME280;48704;50.534;6.442;2023-10-13T09:55:31;94982.88;;;19.09;100.00
62634;BME280;48704;50.534;6.442;2023-10-13T09:58:03;94973.66;;;18.75;100.00
62634;BME280;48704;50.534;6.442;2023-10-13T10:00:40;94970.81;;;18.88;100.00
62634;BME280;48704;50.534;6.442;2023-10-13T10:03:07;94984.22;;;18.95;100.00
62634;BME280;48704;50.534;6.442;2023-10-13T10:05:57;94982.97;;;19.79;100.00
62634;BME280;48704;50.534;6.442;2023-10-13T10:08:29;94979.94;;;20.34;100.00
62634;BME280;48704;50.534;6.442;2023-10-13T10:13:47;94990.34;;;20.11;100.00
62634;BME280;48704;50.534;6.442;2023-10-13T10:16:22;94982.34;;;20.30;100.00
62634;BME280;48704;50.534;6.442;2023-10-13T10:19:00;94981.00;;;20.23;100.00
62634;BME280;48704;50.534;6.442;2023-10-13T10:21:36;94973.50;;;19.97;100.00
62634;BME280;48704;50.534;6.442;2023-10-13T10:24:02;94972.44;;;20.44;100.00
62634;BME280;48704;50.534;6.442;2023-10-13T10:26:38;94973.31;;;20.67;100.00
62634;BME280;48704;50.534;6.442;2023-10-13T10:29:14;94977.16;;;20.93;100.00
62634;BME280;48704;50.534;6.442;2023-10-13T10:31:40;94960.69;;;21.73;100.00
62634;BME280;48704;50.534;6.442;2023-10-13T10:34:13;94966.84;;;21.18;100.00
62634;BME280;48704;50.534;6.442;2023-10-13T10:36:39;94953.13;;;21.60;100.00
62634;BME280;48704;50.534;6.442;2023-10-13T10:39:08;94955.75;;;21.58;98.96
62634;BME280;48704;50.534;6.442;2023-10-13T10:41:37;94961.84;;;20.37;100.00
62634;BME280;48704;50.534;6.442;2023-10-13T10:46:41;94963.88;;;19.72;100.00
62634;BME280;48704;50.534;6.442;2023-10-13T10:49:19;94956.53;;;19.27;100.00
62634;BME280;48704;50.534;6.442;2023-10-13T10:51:58;94948.94;;;19.22;100.00
62634;BME280;48704;50.534;6.442;2023-10-13T10:54:26;94947.94;;;18.99;100.00
62634;BME280;48704;50.534;6.442;2023-10-13T10:56:56;94932.06;;;18.88;100.00
62634;BME280;48704;50.534;6.442;2023-10-13T10:59:21;94927.41;;;18.78;100.00
62634;BME280;48704;50.534;6.442;2023-10-13T11:01:50;94929.28;;;18.75;100.00
62634;BME280;48704;50.534;6.442;2023-10-13T11:04:19;94921.81;;;18.64;100.00
62634;BME280;48704;50.534;6.442;2023-10-13T11:06:59;94919.31;;;18.61;100.00
62634;BME280;48704;50.534;6.442;2023-10-13T11:09:32;94919.06;;;18.72;100.00
62634;BME280;48704;50.534;6.442;2023-10-13T11:12:09;94928.69;;;19.81;100.00
62634;BME280;48704;50.534;6.442;2023-10-13T11:14:42;94923.31;;;19.20;100.00
62634;BME280;48704;50.534;6.442;2023-10-13T11:17:18;94925.28;;;19.33;100.00
62634;BME280;48704;50.534;6.442;2023-10-13T11:19:50;94924.00;;;19.55;100.00
62634;BME280;48704;50.534;6.442;2023-10-13T11:22:20;94932.53;;;19.42;100.00
62634;BME280;48704;50.534;6.442;2023-10-13T11:24:57;94911.72;;;19.31;100.00
62634;BME280;48704;50.534;6.442;2023-10-13T11:27:31;94917.66;;;19.20;100.00
62634;BME280;48704;50.534;6.442;2023-10-13T11:30:13;94924.41;;;19.17;100.00
62634;BME280;48704;50.534;6.442;2023-10-13T11:32:45;94929.06;;;18.94;100.00
62634;BME280;48704;50.534;6.442;2023-10-13T11:35:12;94911.75;;;18.90;100.00
62634;BME280;48704;50.534;6.442;2023-10-13T11:37:47;94918.81;;;18.83;100.00
62634;BME280;48704;50.534;6.442;2023-10-13T11:40:22;94914.00;;;19.12;100.00
62634;BME280;48704;50.534;6.442;2023-10-13T11:43:06;94915.09;;;19.09;100.00
62634;BME280;48704;50.534;6.442;2023-10-13T11:45:39;94914.00;;;18.91;100.00
62634;BME280;48704;50.534;6.442;2023-10-13T11:48:18;94913.13;;;18.62;100.00
62634;BME280;48704;50.534;6.442;2023-10-13T11:50:49;94911.13;;;18.36;100.00
62634;BME280;48704;50.534;6.442;2023-10-13T11:53:14;94913.16;;;18.49;100.00
62634;BME280;48704;50.534;6.442;2023-10-13T11:55:43;94903.81;;;18.54;100.00
62634;BME280;48704;50.534;6.442;2023-10-13T11:58:08;94910.47;;;18.78;100.00
62634;BME280;48704;50.534;6.442;2023-10-13T12:00:34;94911.59;;;19.16;100.00
62634;BME280;48704;50.534;6.442;2023-10-13T12:03:18;94908.72;;;18.88;100.00
62634;BME280;48704;50.534;6.442;2023-10-13T12:06:08;94912.50;;;18.90;100.00
62634;BME280;48704;50.534;6.442;2023-10-13T12:09:03;94919.28;;;18.95;100.00
62634;BME280;48704;50.534;6.442;2023-10-13T12:11:50;94895.34;;;19.09;100.00
62634;BME280;48704;50.534;6.442;2023-10-13T12:14:19;94890.63;;;19.32;100.00
62634;BME280;48704;50.534;6.442;2023-10-13T12:16:47;94893.13;;;19.57;100.00
62634;BME280;48704;50.534;6.442;2023-10-13T12:19:20;94889.69;;;19.51;100.00
62634;BME280;48704;50.534;6.442;2023-10-13T12:21:56;94882.78;;;19.38;100.00
62634;BME280;48704;50.534;6.442;2023-10-13T12:24:25;94888.72;;;19.27;100.00
62634;BME280;48704;50.534;6.442;2023-10-13T12:27:04;94885.31;;;19.50;100.00
62634;BME280;48704;50.534;6.442;2023-10-13T12:29:46;94886.03;;;19.71;100.00
62634;BME280;48704;50.534;6.442;2023-10-13T12:32:13;94886.41;;;19.47;100.00
62634;BME280;48704;50.534;6.442;2023-10-13T12:34:40;94897.25;;;19.35;100.00
62634;BME280;48704;50.534;6.442;2023-10-13T12:37:25;94902.75;;;19.41;100.00
62634;BME280;48704;50.534;6.442;2023-10-13T12:40:17;94880.16;;;19.41;100.00
62634;BME280;48704;50.534;6.442;2023-10-13T12:43:03;94880.38;;;19.71;100.00
62634;BME280;48704;50.534;6.442;2023-10-13T12:45:51;94882.97;;;19.61;100.00
62634;BME280;48704;50.534;6.442;2023-10-13T12:48:37;94857.69;;;19.56;100.00
62634;BME280;48704;50.534;6.442;2023-10-13T12:51:21;94851.69;;;19.59;100.00
62634;BME280;48704;50.534;6.442;2023-10-13T12:53:56;94857.38;;;19.67;100.00
62634;BME280;48704;50.534;6.442;2023-10-13T12:56:30;94847.56;;;19.68;100.00
62634;BME280;48704;50.534;6.442;2023-10-13T12:58:58;94849.09;;;19.69;100.00
62634;BME280;48704;50.534;6.442;2023-10-13T13:01:25;94834.59;;;19.73;100.00
62634;BME280;48704;50.534;6.442;2023-10-13T13:03:52;94849.09;;;19.69;99.85
62634;BME280;48704;50.534;6.442;2023-10-13T13:06:30;94847.97;;;19.72;100.00
62634;BME280;48704;50.534;6.442;2023-10-13T13:08:57;94828.59;;;20.20;98.71
62634;BME280;48704;50.534;6.442;2023-10-13T13:11:23;94832.19;;;21.40;91.42
62634;BME280;48704;50.534;6.442;2023-10-13T13:13:49;94804.72;;;22.28;85.61
62634;BME280;48704;50.534;6.442;2023-10-13T13:16:16;94813.06;;;21.63;82.63
62634;BME280;48704;50.534;6.442;2023-10-13T13:18:47;94822.25;;;22.42;81.13
62634;BME280;48704;50.534;6.442;2023-10-13T13:21:13;94823.31;;;22.22;83.12
62634;BME280;48704;50.534;6.442;2023-10-13T13:23:51;94826.09;;;21.74;84.77
62634;BME280;48704;50.534;6.442;2023-10-13T13:26:16;94832.94;;;20.95;86.14
62634;BME280;48704;50.534;6.442;2023-10-13T13:28:46;94828.75;;;20.81;88.10
62634;BME280;48704;50.534;6.442;2023-10-13T13:31:18;94823.28;;;20.75;89.90
62634;BME280;48704;50.534;6.442;2023-10-13T13:33:44;94819.72;;;20.75;89.88
62634;BME280;48704;50.534;6.442;2023-10-13T13:36:10;94831.34;;;20.48;89.95
62634;BME280;48704;50.534;6.442;2023-10-13T13:38:43;94822.94;;;20.20;91.72
62634;BME280;48704;50.534;6.442;2023-10-13T13:41:14;94817.44;;;20.14;92.68
62634;BME280;48704;50.534;6.442;2023-10-13T13:43:44;94811.53;;;20.41;91.62
62634;BME280;48704;50.534;6.442;2023-10-13T13:46:17;94811.22;;;20.16;91.64
62634;BME280;48704;50.534;6.442;2023-10-13T13:48:43;94801.22;;;20.15;92.15